TimeMDT,TemperatureF,Dew PointF,Humidity,Sea Level PressureIn,VisibilityMPH,Wind Direction,Wind SpeedMPH,Gust SpeedMPH,PrecipitationIn,Events,Conditions,WindDirDegrees,DateUTC
12:52 AM,55.9,23.0,28,29.99,10.0,NE,3.5,-,N/A,,Clear,40,2012-10-08 06:52:00
1:52 AM,53.1,24.1,32,29.99,10.0,NNE,4.6,-,N/A,,Clear,20,2012-10-08 07:52:00
2:52 AM,51.1,24.1,35,29.99,10.0,North,5.8,-,N/A,,Clear,10,2012-10-08 08:52:00
3:52 AM,48.9,23.0,36,29.99,10.0,North,5.8,-,N/A,,Clear,360,2012-10-08 09:52:00
4:52 AM,46.0,26.1,46,30.00,10.0,NNW,6.9,-,N/A,,Clear,340,2012-10-08 10:52:00
5:52 AM,45.0,27.0,49,30.01,10.0,NNW,8.1,-,N/A,,Clear,340,2012-10-08 11:52:00
6:52 AM,43.0,28.0,56,30.05,10.0,NNE,4.6,-,N/A,,Partly Cloudy,30,2012-10-08 12:52:00
7:52 AM,44.1,27.0,51,30.07,10.0,NW,4.6,-,N/A,,Scattered Clouds,320,2012-10-08 13:52:00
8:52 AM,48.9,27.0,43,30.09,10.0,Calm,Calm,-,N/A,,Partly Cloudy,0,2012-10-08 14:52:00
9:52 AM,53.1,28.0,38,30.07,10.0,Calm,Calm,-,N/A,,Scattered Clouds,0,2012-10-08 15:52:00
10:52 AM,59.0,30.9,35,30.03,10.0,Calm,Calm,-,N/A,,Mostly Cloudy,0,2012-10-08 16:52:00
11:52 AM,63.0,33.1,33,30.00,10.0,WSW,5.8,-,N/A,,Mostly Cloudy,250,2012-10-08 17:52:00
12:52 PM,66.9,28.9,24,29.96,10.0,SSW,6.9,-,N/A,,Mostly Cloudy,200,2012-10-08 18:52:00
1:52 PM,69.1,24.1,18,29.92,10.0,Calm,Calm,-,N/A,,Mostly Cloudy,0,2012-10-08 19:52:00
2:52 PM,73.0,24.1,16,29.88,10.0,Variable,3.5,-,N/A,,Mostly Cloudy,0,2012-10-08 20:52:00
3:52 PM,75.0,23.0,14,29.85,10.0,Calm,Calm,-,N/A,,Mostly Cloudy,0,2012-10-08 21:52:00
4:52 PM,75.0,23.0,14,29.85,10.0,ENE,3.5,-,N/A,,Scattered Clouds,60,2012-10-08 22:52:00
5:52 PM,75.2,23.0,14,30.01,10.0,SE,3.5,-,N/A,,Scattered Clouds,140,2012-10-08 23:52:00
6:52 PM,73.0,25.0,17,29.86,10.0,South,3.5,-,N/A,,Mostly Cloudy,170,2012-10-09 00:52:00
7:52 PM,70.0,24.1,18,29.88,10.0,Calm,Calm,-,N/A,,Scattered Clouds,0,2012-10-09 01:52:00
8:52 PM,68.0,21.0,17,29.88,10.0,West,8.1,-,N/A,,Partly Cloudy,280,2012-10-09 02:52:00
9:52 PM,66.0,19.9,17,29.90,10.0,NNW,9.2,-,N/A,,Partly Cloudy,330,2012-10-09 03:52:00
10:52 PM,64.0,21.9,20,29.89,10.0,NNW,6.9,-,N/A,,Clear,340,2012-10-09 04:52:00
11:52 PM,61.0,21.9,22,29.90,10.0,NW,6.9,-,N/A,,Clear,310,2012-10-09 05:52:00